sensor_id;sensor_type;location;lat;lon;timestamp;temperature;humidity
52941;DHT22;62001;53.366;6.636;2023-02-28T00:00:23;4.60;99.90
52941;DHT22;62001;53.366;6.636;2023-02-28T00:02:49;4.70;99.90
52941;DHT22;62001;53.366;6.636;2023-02-28T00:05:17;4.60;99.90
52941;DHT22;62001;53.366;6.636;2023-02-28T00:07:43;4.70;99.90
52941;DHT22;62001;53.366;6.636;2023-02-28T00:10:15;4.70;99.90
52941;DHT22;62001;53.366;6.636;2023-02-28T00:12:41;4.70;99.90
52941;DHT22;62001;53.366;6.636;2023-02-28T00:15:10;4.70;99.90
52941;DHT22;62001;53.366;6.636;2023-02-28T00:17:37;4.70;99.90
52941;DHT22;62001;53.366;6.636;2023-02-28T00:20:04;4.70;99.90
52941;DHT22;62001;53.366;6.636;2023-02-28T00:22:34;4.60;99.90
52941;DHT22;62001;53.366;6.636;2023-02-28T00:25:00;4.50;99.90
52941;DHT22;62001;53.366;6.636;2023-02-28T00:27:26;4.50;99.90
52941;DHT22;62001;53.366;6.636;2023-02-28T00:29:51;4.50;99.90
52941;DHT22;62001;53.366;6.636;2023-02-28T00:32:19;4.50;99.90
52941;DHT22;62001;53.366;6.636;2023-02-28T00:34:45;4.50;99.90
52941;DHT22;62001;53.366;6.636;2023-02-28T00:37:12;4.50;99.90
52941;DHT22;62001;53.366;6.636;2023-02-28T00:39:38;4.50;99.90
52941;DHT22;62001;53.366;6.636;2023-02-28T00:42:05;4.50;99.90
52941;DHT22;62001;53.366;6.636;2023-02-28T00:44:31;4.50;99.90
52941;DHT22;62001;53.366;6.636;2023-02-28T00:46:58;4.50;99.90
52941;DHT22;62001;53.366;6.636;2023-02-28T00:49:25;4.60;99.90
52941;DHT22;62001;53.366;6.636;2023-02-28T00:51:52;4.60;99.90
52941;DHT22;62001;53.366;6.636;2023-02-28T00:54:18;4.70;99.90
52941;DHT22;62001;53.366;6.636;2023-02-28T00:56:44;4.70;99.90
52941;DHT22;62001;53.366;6.636;2023-02-28T00:59:12;4.70;99.90
52941;DHT22;62001;53.366;6.636;2023-02-28T01:01:38;4.70;99.90
52941;DHT22;62001;53.366;6.636;2023-02-28T01:04:04;4.70;99.90
52941;DHT22;62001;53.366;6.636;2023-02-28T01:06:30;4.70;99.90
52941;DHT22;62001;53.366;6.636;2023-02-28T01:08:57;4.70;99.90
52941;DHT22;62001;53.366;6.636;2023-02-28T01:11:23;4.70;99.90
52941;DHT22;62001;53.366;6.636;2023-02-28T01:13:49;4.70;99.90
52941;DHT22;62001;53.366;6.636;2023-02-28T01:16:15;4.70;99.90
52941;DHT22;62001;53.366;6.636;2023-02-28T01:18:41;4.70;99.90
52941;DHT22;62001;53.366;6.636;2023-02-28T01:21:10;4.70;99.90
52941;DHT22;62001;53.366;6.636;2023-02-28T01:23:37;4.60;99.90
52941;DHT22;62001;53.366;6.636;2023-02-28T01:26:08;4.60;99.90
52941;DHT22;62001;53.366;6.636;2023-02-28T01:28:34;4.50;99.90
52941;DHT22;62001;53.366;6.636;2023-02-28T01:31:00;4.50;99.90
52941;DHT22;62001;53.366;6.636;2023-02-28T01:33:26;4.50;99.90
52941;DHT22;62001;53.366;6.636;2023-02-28T01:36:06;4.50;99.90
52941;DHT22;62001;53.366;6.636;2023-02-28T01:38:33;4.50;99.90
52941;DHT22;62001;53.366;6.636;2023-02-28T01:40:59;4.50;99.90
52941;DHT22;62001;53.366;6.636;2023-02-28T01:43:31;4.60;99.90
52941;DHT22;62001;53.366;6.636;2023-02-28T01:45:58;4.60;99.90
52941;DHT22;62001;53.366;6.636;2023-02-28T01:48:32;4.60;99.90
52941;DHT22;62001;53.366;6.636;2023-02-28T01:51:05;4.70;99.90
52941;DHT22;62001;53.366;6.636;2023-02-28T01:53:39;4.70;99.90
52941;DHT22;62001;53.366;6.636;2023-02-28T01:56:07;4.70;99.90
52941;DHT22;62001;53.366;6.636;2023-02-28T01:58:34;4.70;99.90
52941;DHT22;62001;53.366;6.636;2023-02-28T02:01:01;4.80;99.90
52941;DHT22;62001;53.366;6.636;2023-02-28T02:03:29;4.80;99.90
52941;DHT22;62001;53.366;6.636;2023-02-28T02:05:56;4.80;99.90
52941;DHT22;62001;53.366;6.636;2023-02-28T02:08:25;4.80;99.90
52941;DHT22;62001;53.366;6.636;2023-02-28T02:11:00;4.80;99.90
52941;DHT22;62001;53.366;6.636;2023-02-28T02:16:51;4.80;99.90
52941;DHT22;62001;53.366;6.636;2023-02-28T02:32:41;4.80;99.90
52941;DHT22;62001;53.366;6.636;2023-02-28T02:41:56;4.70;99.90
52941;DHT22;62001;53.366;6.636;2023-02-28T02:44:45;4.70;99.90
52941;DHT22;62001;53.366;6.636;2023-02-28T02:47:15;4.70;99.90
52941;DHT22;62001;53.366;6.636;2023-02-28T02:49:51;4.70;99.90
52941;DHT22;62001;53.366;6.636;2023-02-28T02:52:20;4.70;99.90
52941;DHT22;62001;53.366;6.636;2023-02-28T02:54:48;4.80;99.90
52941;DHT22;62001;53.366;6.636;2023-02-28T03:00:10;4.80;99.90
52941;DHT22;62001;53.366;6.636;2023-02-28T03:02:38;4.80;99.90
52941;DHT22;62001;53.366;6.636;2023-02-28T03:05:20;4.80;99.90
52941;DHT22;62001;53.366;6.636;2023-02-28T03:07:47;4.80;99.90
52941;DHT22;62001;53.366;6.636;2023-02-28T03:10:32;4.80;99.90
52941;DHT22;62001;53.366;6.636;2023-02-28T03:13:11;4.80;99.90
52941;DHT22;62001;53.366;6.636;2023-02-28T03:18:43;4.80;99.90
52941;DHT22;62001;53.366;6.636;2023-02-28T03:24:25;4.70;99.90
52941;DHT22;62001;53.366;6.636;2023-02-28T03:26:55;4.70;99.90
52941;DHT22;62001;53.366;6.636;2023-02-28T03:29:35;4.70;99.90
52941;DHT22;62001;53.366;6.636;2023-02-28T03:34:58;4.70;99.90
52941;DHT22;62001;53.366;6.636;2023-02-28T03:37:27;4.70;99.90
52941;DHT22;62001;53.366;6.636;2023-02-28T03:40:13;4.80;99.90
52941;DHT22;62001;53.366;6.636;2023-02-28T03:42:43;4.80;99.90
52941;DHT22;62001;53.366;6.636;2023-02-28T03:45:21;4.80;99.90
52941;DHT22;62001;53.366;6.636;2023-02-28T03:48:01;4.80;99.90
52941;DHT22;62001;53.366;6.636;2023-02-28T03:50:40;4.90;99.90
52941;DHT22;62001;53.366;6.636;2023-02-28T03:53:15;4.90;99.90
52941;DHT22;62001;53.366;6.636;2023-02-28T03:55:53;4.90;99.90
52941;DHT22;62001;53.366;6.636;2023-02-28T03:58:37;4.90;99.90
52941;DHT22;62001;53.366;6.636;2023-02-28T04:01:32;4.90;99.90
52941;DHT22;62001;53.366;6.636;2023-02-28T04:04:00;4.90;99.90
52941;DHT22;62001;53.366;6.636;2023-02-28T04:06:27;4.90;99.90
52941;DHT22;62001;53.366;6.636;2023-02-28T04:08:56;4.80;99.90
52941;DHT22;62001;53.366;6.636;2023-02-28T04:11:27;4.80;99.90
52941;DHT22;62001;53.366;6.636;2023-02-28T04:13:55;4.80;99.90
52941;DHT22;62001;53.366;6.636;2023-02-28T04:16:21;4.80;99.90
52941;DHT22;62001;53.366;6.636;2023-02-28T04:18:47;4.70;99.90
52941;DHT22;62001;53.366;6.636;2023-02-28T04:21:12;4.70;99.90
52941;DHT22;62001;53.366;6.636;2023-02-28T04:23:38;4.60;99.90
52941;DHT22;62001;53.366;6.636;2023-02-28T04:26:05;4.50;99.90
52941;DHT22;62001;53.366;6.636;2023-02-28T04:28:32;4.50;99.90
52941;DHT22;62001;53.366;6.636;2023-02-28T04:31:03;4.40;99.90
52941;DHT22;62001;53.366;6.636;2023-02-28T04:33:30;4.30;99.90
52941;DHT22;62001;53.366;6.636;2023-02-28T04:36:05;4.20;99.90
52941;DHT22;62001;53.366;6.636;2023-02-28T04:38:38;4.20;99.90
52941;DHT22;62001;53.366;6.636;2023-02-28T04:41:05;4.00;99.90
52941;DHT22;62001;53.366;6.636;2023-02-28T04:43:31;3.90;99.90
52941;DHT22;62001;53.366;6.636;2023-02-28T04:45:59;3.90;99.90
52941;DHT22;62001;53.366;6.636;2023-02-28T04:48:28;3.80;99.90
52941;DHT22;62001;53.366;6.636;2023-02-28T04:50:54;3.80;99.90
52941;DHT22;62001;53.366;6.636;2023-02-28T04:53:21;3.80;99.90
52941;DHT22;62001;53.366;6.636;2023-02-28T04:55:47;3.70;99.90
52941;DHT22;62001;53.366;6.636;2023-02-28T04:58:13;3.70;99.90
52941;DHT22;62001;53.366;6.636;2023-02-28T05:00:39;3.70;99.90
52941;DHT22;62001;53.366;6.636;2023-02-28T05:03:05;3.70;99.90
52941;DHT22;62001;53.366;6.636;2023-02-28T05:05:31;3.70;99.90
52941;DHT22;62001;53.366;6.636;2023-02-28T05:07:57;3.60;99.90
52941;DHT22;62001;53.366;6.636;2023-02-28T05:10:23;3.60;99.90
52941;DHT22;62001;53.366;6.636;2023-02-28T05:12:49;3.60;99.90
52941;DHT22;62001;53.366;6.636;2023-02-28T05:15:16;3.60;99.90
52941;DHT22;62001;53.366;6.636;2023-02-28T05:17:42;3.60;99.90
52941;DHT22;62001;53.366;6.636;2023-02-28T05:20:09;3.50;99.90
52941;DHT22;62001;53.366;6.636;2023-02-28T05:22:40;3.50;99.90
52941;DHT22;62001;53.366;6.636;2023-02-28T05:25:06;3.50;99.90
52941;DHT22;62001;53.366;6.636;2023-02-28T05:27:32;3.50;99.90
52941;DHT22;62001;53.366;6.636;2023-02-28T05:29:58;3.50;99.90
52941;DHT22;62001;53.366;6.636;2023-02-28T05:32:24;3.50;99.90
52941;DHT22;62001;53.366;6.636;2023-02-28T05:34:50;3.50;99.90
52941;DHT22;62001;53.366;6.636;2023-02-28T05:37:16;3.40;99.90
52941;DHT22;62001;53.366;6.636;2023-02-28T05:39:43;3.40;99.90
52941;DHT22;62001;53.366;6.636;2023-02-28T05:42:09;3.40;99.90
52941;DHT22;62001;53.366;6.636;2023-02-28T05:44:36;3.40;99.90
52941;DHT22;62001;53.366;6.636;2023-02-28T05:47:02;3.40;99.90
52941;DHT22;62001;53.366;6.636;2023-02-28T05:49:28;3.40;99.90
52941;DHT22;62001;53.366;6.636;2023-02-28T05:51:54;3.40;99.90
52941;DHT22;62001;53.366;6.636;2023-02-28T05:54:20;3.40;99.90
52941;DHT22;62001;53.366;6.636;2023-02-28T05:56:45;3.40;99.90
52941;DHT22;62001;53.366;6.636;2023-02-28T05:59:12;3.40;99.90
52941;DHT22;62001;53.366;6.636;2023-02-28T06:01:40;3.30;99.90
52941;DHT22;62001;53.366;6.636;2023-02-28T06:04:09;3.30;99.90
52941;DHT22;62001;53.366;6.636;2023-02-28T06:06:36;3.30;99.90
52941;DHT22;62001;53.366;6.636;2023-02-28T06:09:04;3.30;99.90
52941;DHT22;62001;53.366;6.636;2023-02-28T06:11:30;3.20;99.90
52941;DHT22;62001;53.366;6.636;2023-02-28T06:13:57;3.30;99.90
52941;DHT22;62001;53.366;6.636;2023-02-28T06:16:26;3.30;99.90
52941;DHT22;62001;53.366;6.636;2023-02-28T06:18:52;3.30;99.90
52941;DHT22;62001;53.366;6.636;2023-02-28T06:21:18;3.20;99.90
52941;DHT22;62001;53.366;6.636;2023-02-28T06:23:44;3.20;99.90
52941;DHT22;62001;53.366;6.636;2023-02-28T06:26:10;3.20;99.90
52941;DHT22;62001;53.366;6.636;2023-02-28T06:28:36;3.20;99.90
52941;DHT22;62001;53.366;6.636;2023-02-28T06:31:14;3.20;99.90
52941;DHT22;62001;53.366;6.636;2023-02-28T06:33:41;3.20;99.90
52941;DHT22;62001;53.366;6.636;2023-02-28T06:36:09;3.20;99.90
52941;DHT22;62001;53.366;6.636;2023-02-28T06:38:36;3.20;99.90
52941;DHT22;62001;53.366;6.636;2023-02-28T06:41:03;3.20;99.90
52941;DHT22;62001;53.366;6.636;2023-02-28T06:43:30;3.20;99.90
52941;DHT22;62001;53.366;6.636;2023-02-28T06:45:58;3.20;99.90
52941;DHT22;62001;53.366;6.636;2023-02-28T06:48:26;3.20;99.90
52941;DHT22;62001;53.366;6.636;2023-02-28T06:50:52;3.20;99.90
52941;DHT22;62001;53.366;6.636;2023-02-28T06:53:18;3.10;99.90
52941;DHT22;62001;53.366;6.636;2023-02-28T06:55:44;3.10;99.90
52941;DHT22;62001;53.366;6.636;2023-02-28T06:58:09;3.10;99.90
52941;DHT22;62001;53.366;6.636;2023-02-28T07:00:44;3.10;99.90
52941;DHT22;62001;53.366;6.636;2023-02-28T07:03:11;3.10;99.90
52941;DHT22;62001;53.366;6.636;2023-02-28T07:05:39;3.10;99.90
52941;DHT22;62001;53.366;6.636;2023-02-28T07:08:05;3.00;99.90
52941;DHT22;62001;53.366;6.636;2023-02-28T07:10:34;3.00;99.90
52941;DHT22;62001;53.366;6.636;2023-02-28T07:13:04;3.10;99.90
52941;DHT22;62001;53.366;6.636;2023-02-28T07:15:30;3.10;99.90
52941;DHT22;62001;53.366;6.636;2023-02-28T07:17:55;3.10;99.90
52941;DHT22;62001;53.366;6.636;2023-02-28T07:20:23;3.00;99.90
52941;DHT22;62001;53.366;6.636;2023-02-28T07:22:49;3.00;99.90
52941;DHT22;62001;53.366;6.636;2023-02-28T07:25:27;3.00;99.90
52941;DHT22;62001;53.366;6.636;2023-02-28T07:27:54;3.00;99.90
52941;DHT22;62001;53.366;6.636;2023-02-28T07:30:20;3.00;99.90
52941;DHT22;62001;53.366;6.636;2023-02-28T07:32:46;3.00;99.90
52941;DHT22;62001;53.366;6.636;2023-02-28T07:35:12;3.00;99.90
52941;DHT22;62001;53.366;6.636;2023-02-28T07:37:41;3.00;99.90
52941;DHT22;62001;53.366;6.636;2023-02-28T07:40:10;3.10;99.90
52941;DHT22;62001;53.366;6.636;2023-02-28T07:42:40;3.10;99.90
52941;DHT22;62001;53.366;6.636;2023-02-28T07:45:07;3.10;99.90
52941;DHT22;62001;53.366;6.636;2023-02-28T07:47:33;3.10;99.90
52941;DHT22;62001;53.366;6.636;2023-02-28T07:50:00;3.20;99.90
52941;DHT22;62001;53.366;6.636;2023-02-28T07:52:25;3.20;99.90
52941;DHT22;62001;53.366;6.636;2023-02-28T07:54:52;3.20;99.90
52941;DHT22;62001;53.366;6.636;2023-02-28T07:57:18;3.20;99.90
52941;DHT22;62001;53.366;6.636;2023-02-28T07:59:44;3.30;99.90
52941;DHT22;62001;53.366;6.636;2023-02-28T08:02:17;3.30;99.90
52941;DHT22;62001;53.366;6.636;2023-02-28T08:04:44;3.40;99.90
52941;DHT22;62001;53.366;6.636;2023-02-28T08:07:12;3.40;99.90
52941;DHT22;62001;53.366;6.636;2023-02-28T08:09:41;3.50;99.90
52941;DHT22;62001;53.366;6.636;2023-02-28T08:12:08;3.60;99.90
52941;DHT22;62001;53.366;6.636;2023-02-28T08:14:34;3.70;99.90
52941;DHT22;62001;53.366;6.636;2023-02-28T08:17:00;3.80;99.90
52941;DHT22;62001;53.366;6.636;2023-02-28T08:19:26;3.80;99.90
52941;DHT22;62001;53.366;6.636;2023-02-28T08:21:52;3.90;99.90
52941;DHT22;62001;53.366;6.636;2023-02-28T08:24:18;3.90;99.90
52941;DHT22;62001;53.366;6.636;2023-02-28T08:26:44;4.00;99.90
52941;DHT22;62001;53.366;6.636;2023-02-28T08:29:10;4.00;99.90
52941;DHT22;62001;53.366;6.636;2023-02-28T08:31:36;4.20;99.90
52941;DHT22;62001;53.366;6.636;2023-02-28T08:34:06;4.30;99.90
52941;DHT22;62001;53.366;6.636;2023-02-28T08:36:32;4.40;99.90
52941;DHT22;62001;53.366;6.636;2023-02-28T08:38:57;4.50;99.90
52941;DHT22;62001;53.366;6.636;2023-02-28T08:41:25;4.60;99.90
52941;DHT22;62001;53.366;6.636;2023-02-28T08:43:52;4.70;99.90
52941;DHT22;62001;53.366;6.636;2023-02-28T08:46:19;4.90;99.90
52941;DHT22;62001;53.366;6.636;2023-02-28T08:48:45;5.00;99.90
52941;DHT22;62001;53.366;6.636;2023-02-28T08:51:14;5.20;99.90
52941;DHT22;62001;53.366;6.636;2023-02-28T08:53:41;5.40;99.90
52941;DHT22;62001;53.366;6.636;2023-02-28T08:56:12;5.60;99.90
52941;DHT22;62001;53.366;6.636;2023-02-28T08:58:39;5.70;99.90
52941;DHT22;62001;53.366;6.636;2023-02-28T09:01:17;5.80;99.90
52941;DHT22;62001;53.366;6.636;2023-02-28T09:03:44;6.00;99.90
52941;DHT22;62001;53.366;6.636;2023-02-28T09:06:11;6.10;99.90
52941;DHT22;62001;53.366;6.636;2023-02-28T09:08:38;6.20;99.90
52941;DHT22;62001;53.366;6.636;2023-02-28T09:11:04;6.30;99.90
52941;DHT22;62001;53.366;6.636;2023-02-28T09:13:30;6.40;99.90
52941;DHT22;62001;53.366;6.636;2023-02-28T09:15:59;6.40;99.90
52941;DHT22;62001;53.366;6.636;2023-02-28T09:18:26;6.40;99.90
52941;DHT22;62001;53.366;6.636;2023-02-28T09:20:52;6.60;99.90
52941;DHT22;62001;53.366;6.636;2023-02-28T09:23:18;6.70;99.90
52941;DHT22;62001;53.366;6.636;2023-02-28T09:25:49;6.70;99.90
52941;DHT22;62001;53.366;6.636;2023-02-28T09:28:16;6.60;99.90
52941;DHT22;62001;53.366;6.636;2023-02-28T09:30:44;6.60;99.90
52941;DHT22;62001;53.366;6.636;2023-02-28T09:33:11;6.60;99.90
52941;DHT22;62001;53.366;6.636;2023-02-28T09:35:37;6.40;99.90
52941;DHT22;62001;53.366;6.636;2023-02-28T09:38:03;6.40;99.90
52941;DHT22;62001;53.366;6.636;2023-02-28T09:40:29;6.50;99.90
52941;DHT22;62001;53.366;6.636;2023-02-28T09:42:57;6.50;99.90
52941;DHT22;62001;53.366;6.636;2023-02-28T09:45:35;6.60;99.90
52941;DHT22;62001;53.366;6.636;2023-02-28T09:48:08;6.90;99.90
52941;DHT22;62001;53.366;6.636;2023-02-28T09:50:41;7.10;99.90
52941;DHT22;62001;53.366;6.636;2023-02-28T09:53:22;7.30;99.90
52941;DHT22;62001;53.366;6.636;2023-02-28T09:55:55;8.30;99.90
52941;DHT22;62001;53.366;6.636;2023-02-28T09:58:49;9.30;99.90
52941;DHT22;62001;53.366;6.636;2023-02-28T10:01:38;10.40;99.90
52941;DHT22;62001;53.366;6.636;2023-02-28T10:04:50;10.80;99.90
52941;DHT22;62001;53.366;6.636;2023-02-28T10:06:51;10.20;99.90
52941;DHT22;62001;53.366;6.636;2023-02-28T10:09:25;9.90;99.90
52941;DHT22;62001;53.366;6.636;2023-02-28T10:11:55;10.20;99.90
52941;DHT22;62001;53.366;6.636;2023-02-28T10:14:23;10.70;99.90
52941;DHT22;62001;53.366;6.636;2023-02-28T10:16:50;11.40;99.90
52941;DHT22;62001;53.366;6.636;2023-02-28T10:19:40;11.60;99.90
52941;DHT22;62001;53.366;6.636;2023-02-28T10:24:51;12.40;99.90
52941;DHT22;62001;53.366;6.636;2023-02-28T10:27:21;12.70;99.90
52941;DHT22;62001;53.366;6.636;2023-02-28T10:29:50;12.50;99.90
52941;DHT22;62001;53.366;6.636;2023-02-28T10:32:22;12.00;99.90
52941;DHT22;62001;53.366;6.636;2023-02-28T10:35:01;11.70;99.90
52941;DHT22;62001;53.366;6.636;2023-02-28T10:37:32;11.90;99.90
52941;DHT22;62001;53.366;6.636;2023-02-28T10:40:07;12.30;99.90
52941;DHT22;62001;53.366;6.636;2023-02-28T10:45:21;12.80;99.90
52941;DHT22;62001;53.366;6.636;2023-02-28T10:47:55;12.90;99.90
52941;DHT22;62001;53.366;6.636;2023-02-28T10:50:37;12.70;99.90
52941;DHT22;62001;53.366;6.636;2023-02-28T11:01:42;10.30;99.90
52941;DHT22;62001;53.366;6.636;2023-02-28T11:04:39;10.10;99.90
52941;DHT22;62001;53.366;6.636;2023-02-28T11:09:48;9.60;99.90
52941;DHT22;62001;53.366;6.636;2023-02-28T11:12:27;9.30;99.90
52941;DHT22;62001;53.366;6.636;2023-02-28T11:15:00;9.20;99.90
52941;DHT22;62001;53.366;6.636;2023-02-28T11:17:30;9.10;99.90
52941;DHT22;62001;53.366;6.636;2023-02-28T11:19:59;9.10;99.90
52941;DHT22;62001;53.366;6.636;2023-02-28T11:22:31;9.00;99.90
52941;DHT22;62001;53.366;6.636;2023-02-28T11:25:02;8.80;99.90
52941;DHT22;62001;53.366;6.636;2023-02-28T11:29:59;8.20;99.90
52941;DHT22;62001;53.366;6.636;2023-02-28T11:32:27;7.90;99.90
52941;DHT22;62001;53.366;6.636;2023-02-28T11:35:15;7.80;99.90
52941;DHT22;62001;53.366;6.636;2023-02-28T11:37:42;7.90;99.90
52941;DHT22;62001;53.366;6.636;2023-02-28T11:40:15;8.00;99.90
52941;DHT22;62001;53.366;6.636;2023-02-28T11:43:00;8.20;99.90
52941;DHT22;62001;53.366;6.636;2023-02-28T11:45:59;8.40;99.90
52941;DHT22;62001;53.366;6.636;2023-02-28T11:48:41;8.80;99.90
52941;DHT22;62001;53.366;6.636;2023-02-28T11:51:28;9.00;99.90
52941;DHT22;62001;53.366;6.636;2023-02-28T11:54:06;9.20;99.90
52941;DHT22;62001;53.366;6.636;2023-02-28T11:56:44;9.20;99.90
52941;DHT22;62001;53.366;6.636;2023-02-28T12:05:01;8.70;99.90
52941;DHT22;62001;53.366;6.636;2023-02-28T12:07:55;8.60;99.90
52941;DHT22;62001;53.366;6.636;2023-02-28T12:11:02;8.70;99.90
52941;DHT22;62001;53.366;6.636;2023-02-28T12:13:42;8.80;99.90
52941;DHT22;62001;53.366;6.636;2023-02-28T12:17:00;8.90;99.90
52941;DHT22;62001;53.366;6.636;2023-02-28T12:22:30;8.40;99.90
52941;DHT22;62001;53.366;6.636;2023-02-28T12:27:52;8.00;99.90
52941;DHT22;62001;53.366;6.636;2023-02-28T12:30:27;7.80;99.90
52941;DHT22;62001;53.366;6.636;2023-02-28T12:33:13;7.70;99.90
52941;DHT22;62001;53.366;6.636;2023-02-28T12:35:57;7.80;99.90
52941;DHT22;62001;53.366;6.636;2023-02-28T12:40:55;7.90;99.90
52941;DHT22;62001;53.366;6.636;2023-02-28T12:43:30;8.10;99.90
52941;DHT22;62001;53.366;6.636;2023-02-28T12:45:59;8.40;99.90
52941;DHT22;62001;53.366;6.636;2023-02-28T12:48:37;8.50;99.90
52941;DHT22;62001;53.366;6.636;2023-02-28T12:51:05;8.50;99.90
52941;DHT22;62001;53.366;6.636;2023-02-28T12:53:39;8.50;99.90
52941;DHT22;62001;53.366;6.636;2023-02-28T12:56:13;8.50;99.90
52941;DHT22;62001;53.366;6.636;2023-02-28T12:58:51;8.50;99.90
52941;DHT22;62001;53.366;6.636;2023-02-28T13:01:33;8.40;99.90
52941;DHT22;62001;53.366;6.636;2023-02-28T13:09:39;8.30;99.90
52941;DHT22;62001;53.366;6.636;2023-02-28T13:12:15;8.40;99.90
52941;DHT22;62001;53.366;6.636;2023-02-28T13:14:42;8.40;99.90
52941;DHT22;62001;53.366;6.636;2023-02-28T13:19:57;8.30;99.90
52941;DHT22;62001;53.366;6.636;2023-02-28T13:22:48;8.40;99.90
52941;DHT22;62001;53.366;6.636;2023-02-28T13:28:00;8.30;99.90
52941;DHT22;62001;53.366;6.636;2023-02-28T13:38:37;8.20;99.90
52941;DHT22;62001;53.366;6.636;2023-02-28T14:05:18;7.80;99.90
52941;DHT22;62001;53.366;6.636;2023-02-28T14:07:53;7.60;99.90
52941;DHT22;62001;53.366;6.636;2023-02-28T14:10:33;7.40;99.90
52941;DHT22;62001;53.366;6.636;2023-02-28T14:13:10;7.30;99.90
52941;DHT22;62001;53.366;6.636;2023-02-28T14:15:46;7.20;99.90
52941;DHT22;62001;53.366;6.636;2023-02-28T14:20:46;7.20;99.90
52941;DHT22;62001;53.366;6.636;2023-02-28T14:23:21;7.20;99.90
52941;DHT22;62001;53.366;6.636;2023-02-28T14:31:45;7.20;99.90
52941;DHT22;62001;53.366;6.636;2023-02-28T14:36:58;7.10;99.90
52941;DHT22;62001;53.366;6.636;2023-02-28T14:39:26;7.10;99.90
52941;DHT22;62001;53.366;6.636;2023-02-28T14:41:56;7.10;99.90
52941;DHT22;62001;53.366;6.636;2023-02-28T14:44:28;7.10;99.90
52941;DHT22;62001;53.366;6.636;2023-02-28T14:46:56;7.10;99.90
52941;DHT22;62001;53.366;6.636;2023-02-28T14:49:41;7.10;99.90
52941;DHT22;62001;53.366;6.636;2023-02-28T14:54:41;7.10;99.90
52941;DHT22;62001;53.366;6.636;2023-02-28T14:58:03;7.10;99.90
52941;DHT22;62001;53.366;6.636;2023-02-28T15:00:21;7.20;99.90
52941;DHT22;62001;53.366;6.636;2023-02-28T15:02:47;7.20;99.90
52941;DHT22;62001;53.366;6.636;2023-02-28T15:07:42;7.10;99.90
52941;DHT22;62001;53.366;6.636;2023-02-28T15:10:21;7.10;99.90
52941;DHT22;62001;53.366;6.636;2023-02-28T15:13:00;7.00;99.90
52941;DHT22;62001;53.366;6.636;2023-02-28T15:17:57;6.90;99.90
52941;DHT22;62001;53.366;6.636;2023-02-28T15:20:24;6.90;99.90
52941;DHT22;62001;53.366;6.636;2023-02-28T15:22:52;6.80;99.90
52941;DHT22;62001;53.366;6.636;2023-02-28T15:25:21;6.80;99.90
52941;DHT22;62001;53.366;6.636;2023-02-28T15:27:53;6.80;99.90
52941;DHT22;62001;53.366;6.636;2023-02-28T15:30:27;6.80;99.90
52941;DHT22;62001;53.366;6.636;2023-02-28T15:33:04;6.70;99.90
52941;DHT22;62001;53.366;6.636;2023-02-28T15:35:32;6.60;99.90
52941;DHT22;62001;53.366;6.636;2023-02-28T15:38:24;6.60;99.90
52941;DHT22;62001;53.366;6.636;2023-02-28T15:40:54;6.50;99.90
52941;DHT22;62001;53.366;6.636;2023-02-28T15:48:30;6.40;99.90
52941;DHT22;62001;53.366;6.636;2023-02-28T15:50:58;6.40;99.90
52941;DHT22;62001;53.366;6.636;2023-02-28T15:53:32;6.40;99.90
52941;DHT22;62001;53.366;6.636;2023-02-28T15:56:04;6.40;99.90
52941;DHT22;62001;53.366;6.636;2023-02-28T15:58:32;6.40;99.90
52941;DHT22;62001;53.366;6.636;2023-02-28T16:01:06;6.40;99.90
52941;DHT22;62001;53.366;6.636;2023-02-28T16:03:48;6.40;99.90
52941;DHT22;62001;53.366;6.636;2023-02-28T16:06:41;6.30;99.90
52941;DHT22;62001;53.366;6.636;2023-02-28T16:09:12;6.20;99.90
52941;DHT22;62001;53.366;6.636;2023-02-28T16:11:46;6.10;99.90
52941;DHT22;62001;53.366;6.636;2023-02-28T16:14:24;6.00;99.90
52941;DHT22;62001;53.366;6.636;2023-02-28T16:16:54;5.80;99.90
52941;DHT22;62001;53.366;6.636;2023-02-28T16:19:20;5.70;99.90
52941;DHT22;62001;53.366;6.636;2023-02-28T16:21:47;5.50;99.90
52941;DHT22;62001;53.366;6.636;2023-02-28T16:24:14;5.40;99.90
52941;DHT22;62001;53.366;6.636;2023-02-28T16:26:42;5.30;99.90
52941;DHT22;62001;53.366;6.636;2023-02-28T16:29:15;5.20;99.90
52941;DHT22;62001;53.366;6.636;2023-02-28T16:31:42;5.00;99.90
52941;DHT22;62001;53.366;6.636;2023-02-28T16:34:08;5.00;99.90
52941;DHT22;62001;53.366;6.636;2023-02-28T16:36:34;4.90;99.90
52941;DHT22;62001;53.366;6.636;2023-02-28T16:39:00;4.80;99.90
52941;DHT22;62001;53.366;6.636;2023-02-28T16:41:28;4.60;99.90
52941;DHT22;62001;53.366;6.636;2023-02-28T16:43:55;4.50;99.90
52941;DHT22;62001;53.366;6.636;2023-02-28T16:46:30;4.40;99.90
52941;DHT22;62001;53.366;6.636;2023-02-28T16:48:57;4.30;99.90
52941;DHT22;62001;53.366;6.636;2023-02-28T16:51:23;4.20;99.90
52941;DHT22;62001;53.366;6.636;2023-02-28T16:53:49;4.10;99.90
52941;DHT22;62001;53.366;6.636;2023-02-28T16:56:20;4.10;99.90
52941;DHT22;62001;53.366;6.636;2023-02-28T16:58:47;4.00;99.90
52941;DHT22;62001;53.366;6.636;2023-02-28T17:01:14;4.00;99.90
52941;DHT22;62001;53.366;6.636;2023-02-28T17:03:40;3.90;99.90
52941;DHT22;62001;53.366;6.636;2023-02-28T17:06:23;3.90;99.90
52941;DHT22;62001;53.366;6.636;2023-02-28T17:08:50;3.80;99.90
52941;DHT22;62001;53.366;6.636;2023-02-28T17:11:17;3.80;99.90
52941;DHT22;62001;53.366;6.636;2023-02-28T17:13:43;3.70;99.90
52941;DHT22;62001;53.366;6.636;2023-02-28T17:16:20;3.60;99.90
52941;DHT22;62001;53.366;6.636;2023-02-28T17:18:47;3.60;99.90
52941;DHT22;62001;53.366;6.636;2023-02-28T17:21:14;3.50;99.90
52941;DHT22;62001;53.366;6.636;2023-02-28T17:23:41;3.50;99.90
52941;DHT22;62001;53.366;6.636;2023-02-28T17:26:09;3.40;99.90
52941;DHT22;62001;53.366;6.636;2023-02-28T17:28:35;3.40;99.90
52941;DHT22;62001;53.366;6.636;2023-02-28T17:31:01;3.30;99.90
52941;DHT22;62001;53.366;6.636;2023-02-28T17:33:27;3.20;99.90
52941;DHT22;62001;53.366;6.636;2023-02-28T17:35:53;3.20;99.90
52941;DHT22;62001;53.366;6.636;2023-02-28T17:38:19;3.10;99.90
52941;DHT22;62001;53.366;6.636;2023-02-28T17:40:48;3.10;99.90
52941;DHT22;62001;53.366;6.636;2023-02-28T17:43:14;3.00;99.90
52941;DHT22;62001;53.366;6.636;2023-02-28T17:45:40;3.00;99.90
52941;DHT22;62001;53.366;6.636;2023-02-28T17:48:10;2.90;99.90
52941;DHT22;62001;53.366;6.636;2023-02-28T17:50:36;2.80;99.90
52941;DHT22;62001;53.366;6.636;2023-02-28T17:53:02;2.80;99.90
52941;DHT22;62001;53.366;6.636;2023-02-28T17:55:28;2.70;99.90
52941;DHT22;62001;53.366;6.636;2023-02-28T17:57:54;2.70;99.90
52941;DHT22;62001;53.366;6.636;2023-02-28T18:00:20;2.60;99.90
52941;DHT22;62001;53.366;6.636;2023-02-28T18:02:49;2.60;99.90
52941;DHT22;62001;53.366;6.636;2023-02-28T18:05:15;2.60;99.90
52941;DHT22;62001;53.366;6.636;2023-02-28T18:07:41;2.50;99.90
52941;DHT22;62001;53.366;6.636;2023-02-28T18:10:20;2.50;99.90
52941;DHT22;62001;53.366;6.636;2023-02-28T18:12:50;2.50;99.90
52941;DHT22;62001;53.366;6.636;2023-02-28T18:15:18;2.50;99.90
52941;DHT22;62001;53.366;6.636;2023-02-28T18:17:46;2.50;99.90
52941;DHT22;62001;53.366;6.636;2023-02-28T18:20:12;2.40;99.90